createdAt,value
2023-07-05T00:00:28.421Z,1229.00
2023-07-05T00:01:28.468Z,1217.00
2023-07-05T00:02:28.465Z,1217.00
2023-07-05T00:03:28.513Z,1200.00
2023-07-05T00:04:28.420Z,1218.00
2023-07-05T00:05:28.423Z,1212.00
2023-07-05T00:06:28.443Z,1215.00
2023-07-05T00:07:28.508Z,1209.00
2023-07-05T00:08:28.437Z,1216.00
2023-07-05T00:09:28.456Z,1223.00
2023-07-05T00:10:28.439Z,1220.00
2023-07-05T00:11:28.437Z,1212.00
2023-07-05T00:12:28.445Z,1220.00
2023-07-05T00:13:29.285Z,1211.00
2023-07-05T00:14:28.447Z,1208.00
2023-07-05T00:15:28.450Z,1211.00
2023-07-05T00:16:28.504Z,1221.00
2023-07-05T00:17:28.481Z,1220.00
2023-07-05T00:18:28.458Z,1206.00
2023-07-05T00:19:28.461Z,1208.00
2023-07-05T00:20:28.476Z,1218.00
2023-07-05T00:21:28.457Z,1221.00
2023-07-05T00:22:28.456Z,1224.00
2023-07-05T00:23:28.460Z,1232.00
2023-07-05T00:24:28.442Z,1220.00
2023-07-05T00:25:28.465Z,1212.00
2023-07-05T00:26:28.453Z,1221.00
2023-07-05T00:27:28.490Z,1214.00
2023-07-05T00:28:28.462Z,1228.00
2023-07-05T00:29:28.451Z,1212.00
2023-07-05T00:30:28.488Z,1224.00
2023-07-05T00:31:28.494Z,1209.00
2023-07-05T00:32:28.542Z,1211.00
2023-07-05T00:33:28.481Z,1222.00
2023-07-05T00:34:28.487Z,1212.00
2023-07-05T00:35:28.487Z,1214.00
2023-07-05T00:36:28.489Z,1224.00
2023-07-05T00:37:28.493Z,1220.00
2023-07-05T00:38:28.506Z,1215.00
2023-07-05T00:39:28.497Z,1219.00
2023-07-05T00:40:28.517Z,1218.00
2023-07-05T00:41:28.535Z,1207.00
2023-07-05T00:42:28.531Z,1203.00
2023-07-05T00:43:28.621Z,1214.00
2023-07-05T00:44:28.618Z,1215.00
2023-07-05T00:45:28.534Z,1218.00
2023-07-05T00:46:28.717Z,1215.00
2023-07-05T00:47:28.556Z,1221.00
2023-07-05T00:48:28.547Z,1209.00
2023-07-05T00:49:28.539Z,1207.00
2023-07-05T00:50:28.533Z,1209.00
2023-07-05T00:51:28.536Z,1210.00
2023-07-05T00:52:28.569Z,1220.00
2023-07-05T00:53:28.526Z,1219.00
2023-07-05T00:54:28.516Z,1205.00
2023-07-05T00:55:28.521Z,1212.00
2023-07-05T00:56:28.525Z,1221.00
2023-07-05T00:57:28.502Z,1207.00
2023-07-05T00:58:28.508Z,1216.00
2023-07-05T00:59:28.499Z,1214.00
2023-07-05T01:00:28.506Z,1198.00
2023-07-05T01:01:28.585Z,1213.00
2023-07-05T01:02:28.525Z,1203.00
2023-07-05T01:03:28.513Z,1213.00
2023-07-05T01:04:28.496Z,1223.00
2023-07-05T01:05:28.534Z,1206.00
2023-07-05T01:06:37.688Z,1200.00
2023-07-05T01:07:28.491Z,1202.00
2023-07-05T01:08:28.505Z,1209.00
2023-07-05T01:09:28.481Z,1218.00
2023-07-05T01:10:28.507Z,1214.00
2023-07-05T01:11:28.466Z,1225.00
2023-07-05T01:12:28.447Z,1223.00
2023-07-05T01:13:28.499Z,1239.00
2023-07-05T01:14:28.445Z,1209.00
2023-07-05T01:15:28.438Z,1208.00
2023-07-05T01:16:28.476Z,1224.00
2023-07-05T01:17:28.447Z,1208.00
2023-07-05T01:18:28.427Z,1204.00
2023-07-05T01:19:28.406Z,1200.00
2023-07-05T01:20:28.400Z,1218.00
2023-07-05T01:21:28.406Z,1208.00
2023-07-05T01:22:28.394Z,1218.00
2023-07-05T01:23:28.379Z,1205.00
2023-07-05T01:24:28.369Z,1206.00
2023-07-05T01:25:28.357Z,1199.00
2023-07-05T01:26:28.357Z,1200.00
2023-07-05T01:27:28.352Z,1197.00
2023-07-05T01:28:28.342Z,1210.00
2023-07-05T01:29:28.353Z,1209.00
2023-07-05T01:30:28.325Z,1199.00
2023-07-05T01:31:28.436Z,1194.00
2023-07-05T01:32:28.332Z,1198.00
2023-07-05T01:33:28.310Z,1188.00
2023-07-05T01:34:28.294Z,1195.00
2023-07-05T01:35:28.308Z,1193.00
2023-07-05T01:36:28.277Z,1193.00
2023-07-05T01:37:28.267Z,1195.00
2023-07-05T01:38:28.270Z,1197.00
2023-07-05T01:39:28.265Z,1200.00
2023-07-05T01:40:28.251Z,1200.00
2023-07-05T01:41:28.253Z,1190.00
2023-07-05T01:42:28.235Z,1197.00
2023-07-05T01:43:28.233Z,1209.00
2023-07-05T01:44:28.224Z,1201.00
2023-07-05T01:45:28.217Z,1196.00
2023-07-05T01:46:28.296Z,1200.00
2023-07-05T01:47:28.220Z,1196.00
2023-07-05T01:48:28.214Z,1193.00
2023-07-05T01:49:28.197Z,1196.00
2023-07-05T01:50:28.212Z,1198.00
2023-07-05T01:51:28.184Z,1188.00
2023-07-05T01:52:28.181Z,1189.00
2023-07-05T01:53:28.191Z,1196.00
2023-07-05T01:54:28.164Z,1190.00
2023-07-05T01:55:28.176Z,1201.00
2023-07-05T01:56:28.155Z,1195.00
2023-07-05T01:57:28.155Z,1194.00
2023-07-05T01:58:28.153Z,1190.00
2023-07-05T01:59:28.131Z,1185.00
2023-07-05T02:00:28.134Z,1187.00
2023-07-05T02:01:28.251Z,1180.00
2023-07-05T02:02:28.178Z,1193.00
2023-07-05T02:03:28.179Z,1194.00
2023-07-05T02:04:28.114Z,1183.00
2023-07-05T02:05:28.097Z,1178.00
2023-07-05T02:06:28.109Z,1192.00
2023-07-05T02:07:28.102Z,1178.00
2023-07-05T02:08:28.078Z,1192.00
2023-07-05T02:09:28.071Z,1190.00
2023-07-05T02:10:28.065Z,1187.00
2023-07-05T02:11:28.073Z,1177.00
2023-07-05T02:12:28.053Z,1190.00
2023-07-05T02:13:28.081Z,1185.00
2023-07-05T02:14:28.048Z,1199.00
2023-07-05T02:15:28.050Z,1185.00
2023-07-05T02:16:28.026Z,1194.00
2023-07-05T02:17:28.026Z,1171.00
2023-07-05T02:18:28.028Z,1196.00
2023-07-05T02:19:28.041Z,1195.00
2023-07-05T02:20:28.000Z,1191.00
2023-07-05T02:21:27.993Z,1192.00
2023-07-05T02:22:28.027Z,1189.00
2023-07-05T02:23:27.986Z,1180.00
2023-07-05T02:24:27.971Z,1195.00
2023-07-05T02:25:27.970Z,1186.00
2023-07-05T02:26:27.978Z,1189.00
2023-07-05T02:27:27.961Z,1175.00
2023-07-05T02:28:27.957Z,1196.00
2023-07-05T02:29:27.969Z,1185.00
2023-07-05T02:30:28.243Z,1193.00
2023-07-05T02:31:27.963Z,1191.00
2023-07-05T02:32:27.964Z,1190.00
2023-07-05T02:33:27.925Z,1185.00
2023-07-05T02:34:27.912Z,1191.00
2023-07-05T02:35:27.900Z,1187.00
2023-07-05T02:36:27.897Z,1190.00
2023-07-05T02:37:27.888Z,1190.00
2023-07-05T02:38:27.887Z,1198.00
2023-07-05T02:39:27.869Z,1199.00
2023-07-05T02:40:27.869Z,1194.00
2023-07-05T02:41:27.968Z,1186.00
2023-07-05T02:42:27.876Z,1184.00
2023-07-05T02:43:27.842Z,1187.00
2023-07-05T02:44:27.838Z,1203.00
2023-07-05T02:45:27.831Z,1185.00
2023-07-05T02:46:27.855Z,1192.00
2023-07-05T02:47:27.891Z,1193.00
2023-07-05T02:48:27.814Z,1200.00
2023-07-05T02:49:27.813Z,1176.00
2023-07-05T02:50:27.836Z,1190.00
2023-07-05T02:51:27.788Z,1195.00
2023-07-05T02:52:27.780Z,1186.00
2023-07-05T02:53:27.784Z,1180.00
2023-07-05T02:54:27.768Z,1200.00
2023-07-05T02:55:27.763Z,1167.00
2023-07-05T02:56:27.755Z,1189.00
2023-07-05T02:57:27.746Z,1198.00
2023-07-05T02:58:27.730Z,1192.00
2023-07-05T02:59:27.734Z,1179.00
2023-07-05T03:00:27.721Z,1189.00
2023-07-05T03:01:27.734Z,1177.00
2023-07-05T03:02:27.745Z,1193.00
2023-07-05T03:03:27.710Z,1200.00
2023-07-05T03:04:27.782Z,1187.00
2023-07-05T03:05:27.694Z,1175.00
2023-07-05T03:06:27.697Z,1186.00
2023-07-05T03:07:27.689Z,1191.00
2023-07-05T03:08:27.729Z,1186.00
2023-07-05T03:09:27.673Z,1193.00
2023-07-05T03:10:27.689Z,1189.00
2023-07-05T03:11:27.672Z,1188.00
2023-07-05T03:12:27.666Z,1177.00
2023-07-05T03:13:27.675Z,1187.00
2023-07-05T03:14:27.638Z,1189.00
2023-07-05T03:15:27.620Z,1182.00
2023-07-05T03:16:27.644Z,1185.00
2023-07-05T03:17:27.736Z,1188.00
2023-07-05T03:18:27.612Z,1183.00
2023-07-05T03:19:27.608Z,1184.00
2023-07-05T03:20:27.608Z,1200.00
2023-07-05T03:21:27.598Z,1192.00
2023-07-05T03:22:27.614Z,1184.00
2023-07-05T03:23:27.568Z,1180.00
2023-07-05T03:24:27.578Z,1176.00
2023-07-05T03:25:27.554Z,1179.00
2023-07-05T03:26:27.553Z,1182.00
2023-07-05T03:27:27.561Z,1197.00
2023-07-05T03:28:27.536Z,1175.00
2023-07-05T03:29:28.474Z,1181.00
2023-07-05T03:30:27.535Z,1194.00
2023-07-05T03:31:27.533Z,1193.00
2023-07-05T03:32:27.573Z,1183.00
2023-07-05T03:33:27.500Z,1185.00
2023-07-05T03:34:27.507Z,1197.00
2023-07-05T03:35:27.504Z,1181.00
2023-07-05T03:36:27.519Z,1182.00
2023-07-05T03:37:27.473Z,1192.00
2023-07-05T03:38:27.483Z,1182.00
2023-07-05T03:39:27.459Z,1183.00
2023-07-05T03:40:27.451Z,1179.00
2023-07-05T03:41:27.455Z,1178.00
2023-07-05T03:42:27.459Z,1187.00
2023-07-05T03:43:27.427Z,1168.00
2023-07-05T03:44:27.428Z,1189.00
2023-07-05T03:45:27.421Z,1181.00
2023-07-05T03:46:27.596Z,1171.00
2023-07-05T03:47:27.452Z,1182.00
2023-07-05T03:48:27.416Z,1176.00
2023-07-05T03:49:27.405Z,1189.00
2023-07-05T03:50:27.390Z,1178.00
2023-07-05T03:51:27.396Z,1181.00
2023-07-05T03:52:27.382Z,1174.00
2023-07-05T03:53:27.374Z,1166.00
2023-07-05T03:54:27.383Z,1170.00
2023-07-05T03:55:27.356Z,1177.00
2023-07-05T03:56:27.360Z,1174.00
2023-07-05T03:57:27.352Z,1166.00
2023-07-05T03:58:27.336Z,1177.00
2023-07-05T03:59:27.326Z,1174.00
2023-07-05T04:00:27.324Z,1164.00
2023-07-05T04:01:27.366Z,1172.00
2023-07-05T04:02:27.349Z,1162.00
2023-07-05T04:03:27.355Z,1153.00
2023-07-05T04:04:27.297Z,1172.00
2023-07-05T04:05:27.295Z,1174.00
2023-07-05T04:06:27.294Z,1157.00
2023-07-05T04:07:27.300Z,1172.00
2023-07-05T04:08:27.268Z,1169.00
2023-07-05T04:09:27.269Z,1174.00
2023-07-05T04:10:27.299Z,1150.00
2023-07-05T04:11:27.308Z,1167.00
2023-07-05T04:12:27.249Z,1168.00
2023-07-05T04:13:27.272Z,1167.00
2023-07-05T04:14:27.238Z,1152.00
2023-07-05T04:15:27.245Z,1164.00
2023-07-05T04:16:27.457Z,1164.00
2023-07-05T04:17:27.255Z,1156.00
2023-07-05T04:18:27.209Z,1158.00
2023-07-05T04:19:27.225Z,1163.00
2023-07-05T04:20:27.224Z,1166.00
2023-07-05T04:21:27.254Z,1152.00
2023-07-05T04:22:27.279Z,1181.00
2023-07-05T04:23:27.249Z,1169.00
2023-07-05T04:24:27.247Z,1160.00
2023-07-05T04:25:27.255Z,1163.00
2023-07-05T04:26:27.256Z,1159.00
2023-07-05T04:27:27.259Z,1156.00
2023-07-05T04:28:27.243Z,1154.00
2023-07-05T04:29:27.238Z,1168.00
2023-07-05T04:30:27.260Z,1159.00
2023-07-05T04:31:27.303Z,1160.00
2023-07-05T04:32:27.272Z,1150.00
2023-07-05T04:33:27.275Z,1149.00
2023-07-05T04:34:27.290Z,1159.00
2023-07-05T04:35:27.303Z,1170.00
2023-07-05T04:36:28.758Z,1152.00
2023-07-05T04:37:29.816Z,1146.00
2023-07-05T04:38:28.296Z,1147.00
2023-07-05T04:39:27.291Z,1148.00
2023-07-05T04:40:27.284Z,1149.00
2023-07-05T04:41:27.350Z,1157.00
2023-07-05T04:42:27.301Z,1159.00
2023-07-05T04:43:27.269Z,1157.00
2023-07-05T04:44:27.278Z,1157.00
2023-07-05T04:45:27.250Z,1151.00
2023-07-05T04:46:27.410Z,1146.00
2023-07-05T04:47:27.267Z,1148.00
2023-07-05T04:48:27.231Z,1150.00
2023-07-05T04:49:27.229Z,1144.00
2023-07-05T04:50:27.228Z,1135.00
2023-07-05T04:51:27.213Z,1148.00
2023-07-05T04:52:27.233Z,1147.00
2023-07-05T04:53:27.223Z,1129.00
2023-07-05T04:54:27.228Z,1149.00
2023-07-05T04:55:27.212Z,1145.00
2023-07-05T04:56:27.180Z,1135.00
2023-07-05T04:57:32.660Z,1141.00
2023-07-05T04:58:28.164Z,1142.00
2023-07-05T04:59:27.154Z,1141.00
2023-07-05T05:00:27.213Z,1141.00
2023-07-05T05:01:27.200Z,1136.00
2023-07-05T05:02:27.367Z,1136.00
2023-07-05T05:03:27.143Z,1143.00
2023-07-05T05:04:27.158Z,1135.00
2023-07-05T05:05:27.100Z,1134.00
2023-07-05T05:06:27.096Z,1128.00
2023-07-05T05:07:27.108Z,1128.00
2023-07-05T05:08:27.098Z,1126.00
2023-07-05T05:09:27.083Z,1131.00
2023-07-05T05:10:27.064Z,1119.00
2023-07-05T05:11:27.071Z,1127.00
2023-07-05T05:12:27.062Z,1121.00
2023-07-05T05:13:27.085Z,1130.00
2023-07-05T05:14:27.037Z,1118.00
2023-07-05T05:15:27.054Z,1128.00
2023-07-05T05:16:27.032Z,1122.00
2023-07-05T05:17:27.067Z,1126.00
2023-07-05T05:18:27.038Z,1130.00
2023-07-05T05:19:27.006Z,1122.00
2023-07-05T05:20:26.986Z,1120.00
2023-07-05T05:21:26.988Z,1113.00
2023-07-05T05:22:27.007Z,1105.00
2023-07-05T05:23:26.988Z,1132.00
2023-07-05T05:24:26.982Z,1109.00
2023-07-05T05:25:26.958Z,1122.00
2023-07-05T05:26:26.994Z,1123.00
2023-07-05T05:27:27.007Z,1117.00
2023-07-05T05:28:26.993Z,1116.00
2023-07-05T05:29:26.973Z,1117.00
2023-07-05T05:30:26.986Z,1115.00
2023-07-05T05:31:27.024Z,1121.00
2023-07-05T05:32:27.081Z,1116.00
2023-07-05T05:33:27.014Z,1111.00
2023-07-05T05:34:26.998Z,1111.00
2023-07-05T05:35:26.995Z,1110.00
2023-07-05T05:36:27.014Z,1109.00
2023-07-05T05:37:27.297Z,1103.00
2023-07-05T05:38:27.055Z,1111.00
2023-07-05T05:39:27.013Z,1114.00
2023-07-05T05:40:27.030Z,1107.00
2023-07-05T05:41:27.017Z,1098.00
2023-07-05T05:42:27.036Z,1101.00
2023-07-05T05:43:27.046Z,1093.00
2023-07-05T05:44:27.074Z,1086.00
2023-07-05T05:45:27.133Z,1084.00
2023-07-05T05:46:27.115Z,1085.00
2023-07-05T05:47:27.324Z,1080.00
2023-07-05T05:48:27.133Z,1087.00
2023-07-05T05:49:27.155Z,1081.00
2023-07-05T05:50:27.210Z,1069.00
2023-07-05T05:51:27.211Z,1073.00
2023-07-05T05:52:27.244Z,1080.00
2023-07-05T05:53:27.278Z,1081.00
2023-07-05T05:54:27.314Z,1071.00
2023-07-05T05:55:27.357Z,1065.00
2023-07-05T05:56:27.383Z,1078.00
2023-07-05T05:57:27.792Z,1071.00
2023-07-05T05:58:27.432Z,1081.00
2023-07-05T05:59:27.433Z,1080.00
2023-07-05T06:00:27.483Z,1066.00
2023-07-05T06:01:27.515Z,1069.00
2023-07-05T06:02:27.946Z,1053.00
2023-07-05T06:03:27.677Z,1066.00
2023-07-05T06:04:27.607Z,1068.00
2023-07-05T06:05:27.634Z,1054.00
2023-07-05T06:06:27.673Z,1047.00
2023-07-05T06:07:27.802Z,1049.00
2023-07-05T06:08:27.755Z,1043.00
2023-07-05T06:09:27.750Z,1043.00
2023-07-05T06:10:27.796Z,1034.00
2023-07-05T06:11:27.791Z,1043.00
2023-07-05T06:12:27.814Z,1042.00
2023-07-05T06:13:27.866Z,1035.00
2023-07-05T06:14:29.960Z,1041.00
2023-07-05T06:15:27.852Z,1045.00
2023-07-05T06:16:27.843Z,1032.00
2023-07-05T06:17:27.932Z,1036.00
2023-07-05T06:18:27.800Z,1032.00
2023-07-05T06:19:27.803Z,1034.00
2023-07-05T06:20:27.845Z,1031.00
2023-07-05T06:21:27.804Z,1035.00
2023-07-05T06:22:27.782Z,1027.00
2023-07-05T06:23:27.774Z,1031.00
2023-07-05T06:24:27.767Z,1028.00
2023-07-05T06:25:27.813Z,1026.00
2023-07-05T06:26:27.744Z,1018.00
2023-07-05T06:27:27.794Z,1020.00
2023-07-05T06:28:27.825Z,1013.00
2023-07-05T06:29:27.760Z,1027.00
2023-07-05T06:30:27.799Z,1026.00
2023-07-05T06:31:27.834Z,1014.00
2023-07-05T06:32:27.741Z,1027.00
2023-07-05T06:33:27.714Z,1013.00
2023-07-05T06:34:27.697Z,1010.00
2023-07-05T06:35:27.691Z,1020.00
2023-07-05T06:36:27.691Z,1022.00
2023-07-05T06:37:27.672Z,1028.00
2023-07-05T06:38:27.662Z,1025.00
2023-07-05T06:39:27.659Z,1021.00
2023-07-05T06:40:27.659Z,1025.00
2023-07-05T06:41:27.651Z,1019.00
2023-07-05T06:42:30.019Z,1022.00
2023-07-05T06:43:27.656Z,1022.00
2023-07-05T06:44:27.635Z,1025.00
2023-07-05T06:45:27.627Z,1027.00
2023-07-05T06:46:27.658Z,1028.00
2023-07-05T06:47:27.874Z,1025.00
2023-07-05T06:48:27.610Z,1029.00
2023-07-05T06:49:27.593Z,1020.00
2023-07-05T06:50:27.632Z,1016.00
2023-07-05T06:51:27.581Z,1014.00
2023-07-05T06:52:27.589Z,1006.00
2023-07-05T06:54:27.573Z,1012.00
2023-07-05T06:55:27.562Z,1013.00
2023-07-05T06:56:27.584Z,1017.00
2023-07-05T06:57:27.546Z,1015.00
2023-07-05T06:58:27.544Z,1017.00
2023-07-05T06:59:27.535Z,1008.00
2023-07-05T07:00:27.621Z,1001.00
2023-07-05T07:01:27.594Z,998.00
2023-07-05T07:02:27.523Z,987.00
2023-07-05T07:03:27.520Z,983.00
2023-07-05T07:04:27.583Z,986.00
2023-07-05T07:05:27.489Z,993.00
2023-07-05T07:06:27.492Z,983.00
2023-07-05T07:07:29.476Z,972.00
2023-07-05T07:08:27.468Z,972.00
2023-07-05T07:09:27.453Z,975.00
2023-07-05T07:10:27.496Z,978.00
2023-07-05T07:11:27.452Z,979.00
2023-07-05T07:12:27.452Z,983.00
2023-07-05T07:13:27.462Z,961.00
2023-07-05T07:14:27.424Z,964.00
2023-07-05T07:15:27.415Z,938.00
2023-07-05T07:16:27.465Z,958.00
2023-07-05T07:17:27.477Z,947.00
2023-07-05T07:18:27.402Z,950.00
2023-07-05T07:19:27.408Z,948.00
2023-07-05T07:20:27.392Z,939.00
2023-07-05T07:21:27.390Z,953.00
2023-07-05T07:22:27.425Z,940.00
2023-07-05T07:23:27.376Z,935.00
2023-07-05T07:24:27.390Z,946.00
2023-07-05T07:25:27.357Z,932.00
2023-07-05T07:26:27.351Z,940.00
2023-07-05T07:27:27.348Z,935.00
2023-07-05T07:28:27.333Z,942.00
2023-07-05T07:29:27.383Z,932.00
2023-07-05T07:30:27.330Z,922.00
2023-07-05T07:31:27.338Z,936.00
2023-07-05T07:32:27.351Z,902.00
2023-07-05T07:33:27.299Z,919.00
2023-07-05T07:34:27.297Z,921.00
2023-07-05T07:35:27.309Z,912.00
2023-07-05T07:36:27.301Z,915.00
2023-07-05T07:37:27.285Z,905.00
2023-07-05T07:38:27.265Z,918.00
2023-07-05T07:39:27.266Z,910.00
2023-07-05T07:40:27.253Z,911.00
2023-07-05T07:41:27.255Z,887.00
2023-07-05T07:42:27.248Z,892.00
2023-07-05T07:43:27.234Z,889.00
2023-07-05T07:44:27.232Z,885.00
2023-07-05T07:45:27.222Z,864.00
2023-07-05T07:46:27.280Z,883.00
2023-07-05T07:47:27.276Z,888.00
2023-07-05T07:48:27.206Z,888.00
2023-07-05T07:49:27.204Z,887.00
2023-07-05T07:50:27.291Z,876.00
2023-07-05T07:51:36.630Z,873.00
2023-07-05T07:52:28.203Z,875.00
2023-07-05T07:53:27.183Z,879.00
2023-07-05T07:54:27.198Z,879.00
2023-07-05T07:55:27.195Z,885.00
2023-07-05T07:56:27.153Z,896.00
2023-07-05T07:57:27.154Z,870.00
2023-07-05T07:58:27.154Z,872.00
2023-07-05T07:59:27.125Z,873.00
2023-07-05T08:00:27.126Z,864.00
2023-07-05T08:01:27.125Z,860.00
2023-07-05T08:02:27.140Z,854.00
2023-07-05T08:03:27.225Z,850.00
2023-07-05T08:04:27.265Z,860.00
2023-07-05T08:05:27.090Z,862.00
2023-07-05T08:06:27.084Z,862.00
2023-07-05T08:07:27.080Z,857.00
2023-07-05T08:08:27.073Z,861.00
2023-07-05T08:09:27.119Z,870.00
2023-07-05T08:10:27.058Z,856.00
2023-07-05T08:11:27.053Z,862.00
2023-07-05T08:12:27.066Z,865.00
2023-07-05T08:13:27.103Z,866.00
2023-07-05T08:14:27.113Z,853.00
2023-07-05T08:15:27.146Z,856.00
2023-07-05T08:16:27.290Z,863.00
2023-07-05T08:17:27.285Z,855.00
2023-07-05T08:18:27.271Z,857.00
2023-07-05T08:19:27.315Z,870.00
2023-07-05T08:20:27.331Z,874.00
2023-07-05T08:21:27.358Z,872.00
2023-07-05T08:22:27.885Z,859.00
2023-07-05T08:23:27.424Z,874.00
2023-07-05T08:24:27.985Z,863.00
2023-07-05T08:25:27.499Z,856.00
2023-07-05T08:26:27.532Z,869.00
2023-07-05T08:27:27.573Z,866.00
2023-07-05T08:28:27.628Z,862.00
2023-07-05T08:29:27.700Z,874.00
2023-07-05T08:30:27.733Z,866.00
2023-07-05T08:31:27.834Z,837.00
2023-07-05T08:32:27.823Z,860.00
2023-07-05T08:33:27.825Z,871.00
2023-07-05T08:34:27.864Z,887.00
2023-07-05T08:35:27.892Z,865.00
2023-07-05T08:36:27.946Z,869.00
2023-07-05T08:37:27.993Z,875.00
2023-07-05T08:38:28.025Z,874.00
2023-07-05T08:39:28.066Z,872.00
2023-07-05T08:40:28.114Z,865.00
2023-07-05T08:41:28.132Z,858.00
2023-07-05T08:42:28.192Z,839.00
2023-07-05T08:43:28.227Z,849.00
2023-07-05T08:44:28.278Z,854.00
2023-07-05T08:45:28.337Z,824.00
2023-07-05T08:46:28.362Z,820.00
2023-07-05T08:47:28.501Z,840.00
2023-07-05T08:48:28.472Z,845.00
2023-07-05T08:49:28.515Z,850.00
2023-07-05T08:50:32.161Z,862.00
2023-07-05T08:51:29.538Z,863.00
2023-07-05T08:52:28.545Z,867.00
2023-07-05T08:53:28.528Z,871.00
2023-07-05T08:54:28.517Z,879.00
2023-07-05T08:55:28.526Z,883.00
2023-07-05T08:56:28.516Z,884.00
2023-07-05T08:57:28.502Z,883.00
2023-07-05T08:58:28.495Z,879.00
2023-07-05T08:59:28.525Z,890.00
2023-07-05T09:00:28.571Z,899.00
2023-07-05T09:01:28.695Z,897.00
2023-07-05T09:02:28.839Z,903.00
2023-07-05T09:03:28.808Z,893.00
2023-07-05T09:04:28.826Z,889.00
2023-07-05T09:05:28.862Z,904.00
2023-07-05T09:06:28.903Z,907.00
2023-07-05T09:07:28.964Z,876.00
2023-07-05T09:08:29.017Z,873.00
2023-07-05T09:09:29.070Z,888.00
2023-07-05T09:10:29.126Z,866.00
2023-07-05T09:11:29.185Z,875.00
2023-07-05T09:12:29.247Z,894.00
2023-07-05T09:13:29.348Z,902.00
2023-07-05T09:14:29.402Z,888.00
2023-07-05T09:15:29.414Z,921.00
2023-07-05T09:16:29.511Z,920.00
2023-07-05T09:17:29.673Z,944.00
2023-07-05T09:18:29.579Z,956.00
2023-07-05T09:19:29.630Z,986.00
2023-07-05T09:20:29.695Z,972.00
2023-07-05T09:21:29.760Z,981.00
2023-07-05T09:22:29.847Z,970.00
2023-07-05T09:23:29.926Z,957.00
2023-07-05T09:24:29.956Z,967.00
2023-07-05T09:25:44.232Z,973.00
2023-07-05T09:26:31.707Z,974.00
2023-07-05T09:27:30.007Z,976.00
2023-07-05T09:28:29.984Z,981.00
2023-07-05T09:29:29.944Z,997.00
2023-07-05T09:30:29.950Z,978.00
2023-07-05T09:31:30.018Z,998.00
2023-07-05T09:32:29.967Z,974.00
2023-07-05T09:33:29.938Z,984.00
2023-07-05T09:34:29.933Z,993.00
2023-07-05T09:35:30.020Z,1011.00
2023-07-05T09:36:30.044Z,994.00
2023-07-05T09:37:31.101Z,981.00
2023-07-05T09:38:30.154Z,991.00
2023-07-05T09:39:30.222Z,997.00
2023-07-05T09:40:30.275Z,986.00
2023-07-05T09:41:30.340Z,980.00
2023-07-05T09:42:30.406Z,1006.00
2023-07-05T09:43:32.250Z,1011.00
2023-07-05T09:44:30.499Z,1017.00
2023-07-05T09:45:30.604Z,1032.00
2023-07-05T09:46:30.687Z,1032.00
2023-07-05T09:47:30.932Z,1020.00
2023-07-05T09:48:30.749Z,1021.00
2023-07-05T09:49:31.870Z,987.00
2023-07-05T09:50:30.863Z,982.00
2023-07-05T09:51:30.911Z,984.00
2023-07-05T09:52:30.973Z,976.00
2023-07-05T09:53:31.042Z,981.00
2023-07-05T09:54:31.091Z,991.00
2023-07-05T09:55:32.530Z,995.00
2023-07-05T09:56:31.212Z,1006.00
2023-07-05T09:57:31.263Z,1008.00
2023-07-05T09:58:31.328Z,1020.00
2023-07-05T09:59:31.382Z,1030.00
2023-07-05T10:00:31.446Z,1037.00
2023-07-05T10:01:33.641Z,1042.00
2023-07-05T10:02:31.662Z,1036.00
2023-07-05T10:03:31.682Z,1055.00
2023-07-05T10:04:31.669Z,1050.00
2023-07-05T10:05:31.715Z,1062.00
2023-07-05T10:06:31.782Z,1057.00
2023-07-05T10:07:31.844Z,1026.00
2023-07-05T10:08:31.882Z,1027.00
2023-07-05T10:09:31.961Z,1010.00
2023-07-05T10:10:31.994Z,997.00
2023-07-05T10:11:32.039Z,1001.00
2023-07-05T10:12:32.086Z,986.00
2023-07-05T10:13:32.491Z,1011.00
2023-07-05T10:14:32.197Z,1026.00
2023-07-05T10:15:34.368Z,1033.00
2023-07-05T10:16:32.505Z,1048.00
2023-07-05T10:17:32.563Z,1053.00
2023-07-05T10:18:32.578Z,1049.00
2023-07-05T10:19:33.734Z,1050.00
2023-07-05T10:20:32.683Z,1056.00
2023-07-05T10:21:32.737Z,1069.00
2023-07-05T10:22:32.760Z,1067.00
2023-07-05T10:23:32.811Z,1054.00
2023-07-05T10:24:32.911Z,1063.00
2023-07-05T10:25:32.915Z,1062.00
2023-07-05T10:26:32.967Z,1067.00
2023-07-05T10:27:33.013Z,1059.00
2023-07-05T10:28:33.062Z,1045.00
2023-07-05T10:29:33.114Z,1043.00
2023-07-05T10:30:33.180Z,1041.00
2023-07-05T10:31:33.230Z,1059.00
2023-07-05T10:32:33.271Z,1045.00
2023-07-05T10:33:33.286Z,1050.00
2023-07-05T10:34:33.349Z,1055.00
2023-07-05T10:35:33.418Z,1058.00
2023-07-05T10:36:33.444Z,1075.00
2023-07-05T10:37:33.552Z,1067.00
2023-07-05T10:38:33.532Z,1069.00
2023-07-05T10:39:33.583Z,1071.00
2023-07-05T10:40:33.625Z,1073.00
2023-07-05T10:41:33.679Z,1052.00
2023-07-05T10:42:33.752Z,1054.00
2023-07-05T10:43:33.774Z,1068.00
2023-07-05T10:44:33.823Z,1074.00
2023-07-05T10:45:33.851Z,1070.00
2023-07-05T10:46:33.946Z,1078.00
2023-07-05T10:47:34.016Z,1082.00
2023-07-05T10:48:33.980Z,1088.00
2023-07-05T10:49:34.023Z,1087.00
2023-07-05T10:50:34.069Z,1076.00
2023-07-05T10:51:34.092Z,1090.00
2023-07-05T10:52:34.145Z,1082.00
2023-07-05T10:53:34.185Z,1098.00
2023-07-05T10:54:34.220Z,1098.00
2023-07-05T10:55:34.265Z,1094.00
2023-07-05T10:56:34.313Z,1097.00
2023-07-05T10:57:34.339Z,1099.00
2023-07-05T10:58:34.372Z,1090.00
2023-07-05T10:59:37.215Z,1100.00
2023-07-05T11:00:34.538Z,1125.00
2023-07-05T11:01:34.514Z,1106.00
2023-07-05T11:02:34.485Z,1112.00
2023-07-05T11:03:34.385Z,1118.00
2023-07-05T11:04:34.422Z,1119.00
2023-07-05T11:05:34.383Z,1112.00
2023-07-05T11:06:34.379Z,1113.00
2023-07-05T11:07:34.394Z,1117.00
2023-07-05T11:08:34.387Z,1123.00
2023-07-05T11:09:34.357Z,1112.00
2023-07-05T11:10:34.350Z,1114.00
2023-07-05T11:11:34.323Z,1116.00
2023-07-05T11:12:34.331Z,1115.00
2023-07-05T11:13:34.396Z,1118.00
2023-07-05T11:14:34.331Z,1113.00
2023-07-05T11:15:34.328Z,1122.00
2023-07-05T11:16:34.387Z,1128.00
2023-07-05T11:17:34.404Z,1117.00
2023-07-05T11:18:34.287Z,1136.00
2023-07-05T11:19:34.297Z,1112.00
2023-07-05T11:20:34.316Z,1127.00
2023-07-05T11:21:34.269Z,1117.00
2023-07-05T11:22:34.505Z,1116.00
2023-07-05T11:23:34.386Z,1110.00
2023-07-05T11:24:34.266Z,1118.00
2023-07-05T11:25:34.238Z,1127.00
2023-07-05T11:26:34.239Z,1129.00
2023-07-05T11:27:34.475Z,1128.00
2023-07-05T11:28:34.227Z,1128.00
2023-07-05T11:29:34.219Z,1140.00
2023-07-05T11:30:34.204Z,1139.00
2023-07-05T11:31:34.209Z,1138.00
2023-07-05T11:32:34.216Z,1130.00
2023-07-05T11:33:34.904Z,1123.00
2023-07-05T11:34:34.182Z,1119.00
2023-07-05T11:35:34.179Z,1130.00
2023-07-05T11:36:34.166Z,1124.00
2023-07-05T11:37:34.170Z,1134.00
2023-07-05T11:38:34.197Z,1131.00
2023-07-05T11:39:34.274Z,1125.00
2023-07-05T11:40:34.241Z,1137.00
2023-07-05T11:41:34.274Z,1130.00
2023-07-05T11:42:34.304Z,1129.00
2023-07-05T11:43:34.352Z,1137.00
2023-07-05T11:44:34.410Z,1133.00
2023-07-05T11:45:34.451Z,1137.00
2023-07-05T11:46:34.458Z,1142.00
2023-07-05T11:47:34.997Z,1137.00
2023-07-05T11:48:34.512Z,1149.00
2023-07-05T11:49:34.540Z,1155.00
2023-07-05T11:50:34.576Z,1148.00
2023-07-05T11:51:37.979Z,1152.00
2023-07-05T11:53:34.599Z,1153.00
2023-07-05T11:54:34.588Z,1156.00
2023-07-05T11:55:34.575Z,1155.00
2023-07-05T11:56:34.591Z,1152.00
2023-07-05T11:57:34.579Z,1160.00
2023-07-05T11:58:34.568Z,1149.00
2023-07-05T11:59:34.555Z,1151.00
2023-07-05T12:00:34.564Z,1161.00
2023-07-05T12:01:34.845Z,1157.00
2023-07-05T12:02:34.566Z,1152.00
2023-07-05T12:03:34.591Z,1167.00
2023-07-05T12:04:34.528Z,1168.00
2023-07-05T12:05:34.514Z,1166.00
2023-07-05T12:06:34.512Z,1162.00
2023-07-05T12:07:34.510Z,1178.00
2023-07-05T12:08:34.509Z,1162.00
2023-07-05T12:09:34.487Z,1171.00
2023-07-05T12:10:34.530Z,1161.00
2023-07-05T12:11:34.492Z,1165.00
2023-07-05T12:12:34.483Z,1165.00